sensor_id;sensor_type;location;lat;lon;timestamp;P1;durP1;ratioP1;P2;durP2;ratioP2
8803;SDS011;4438;50.890;4.726;2023-09-19T00:01:08;9.80;;;3.13;;
8803;SDS011;4438;50.890;4.726;2023-09-19T00:03:34;6.63;;;2.90;;
8803;SDS011;4438;50.890;4.726;2023-09-19T00:06:04;6.53;;;2.50;;
8803;SDS011;4438;50.890;4.726;2023-09-19T00:08:32;5.93;;;2.83;;
8803;SDS011;4438;50.890;4.726;2023-09-19T00:10:58;10.80;;;3.00;;
8803;SDS011;4438;50.890;4.726;2023-09-19T00:13:35;8.33;;;2.70;;
8803;SDS011;4438;50.890;4.726;2023-09-19T00:16:08;8.67;;;2.93;;
8803;SDS011;4438;50.890;4.726;2023-09-19T00:18:35;7.00;;;3.00;;
8803;SDS011;4438;50.890;4.726;2023-09-19T00:21:01;7.23;;;2.70;;
8803;SDS011;4438;50.890;4.726;2023-09-19T00:23:30;5.43;;;2.77;;
8803;SDS011;4438;50.890;4.726;2023-09-19T00:25:59;6.40;;;2.77;;
8803;SDS011;4438;50.890;4.726;2023-09-19T00:28:26;8.60;;;3.10;;
8803;SDS011;4438;50.890;4.726;2023-09-19T00:30:52;8.90;;;3.13;;
8803;SDS011;4438;50.890;4.726;2023-09-19T00:33:22;6.77;;;2.57;;
8803;SDS011;4438;50.890;4.726;2023-09-19T00:35:53;7.80;;;2.50;;
8803;SDS011;4438;50.890;4.726;2023-09-19T00:38:20;8.03;;;3.27;;
8803;SDS011;4438;50.890;4.726;2023-09-19T00:40:47;6.13;;;2.80;;
8803;SDS011;4438;50.890;4.726;2023-09-19T00:43:15;6.97;;;2.93;;
8803;SDS011;4438;50.890;4.726;2023-09-19T00:45:54;5.83;;;2.53;;
8803;SDS011;4438;50.890;4.726;2023-09-19T00:48:31;9.47;;;3.10;;
8803;SDS011;4438;50.890;4.726;2023-09-19T00:51:02;7.87;;;3.40;;
8803;SDS011;4438;50.890;4.726;2023-09-19T00:53:29;10.47;;;3.20;;
8803;SDS011;4438;50.890;4.726;2023-09-19T00:55:56;6.73;;;3.00;;
8803;SDS011;4438;50.890;4.726;2023-09-19T00:58:22;5.80;;;2.90;;
8803;SDS011;4438;50.890;4.726;2023-09-19T01:00:48;8.17;;;2.67;;
8803;SDS011;4438;50.890;4.726;2023-09-19T01:03:15;6.27;;;2.57;;
8803;SDS011;4438;50.890;4.726;2023-09-19T01:05:41;7.03;;;3.03;;
8803;SDS011;4438;50.890;4.726;2023-09-19T01:08:07;8.87;;;2.87;;
8803;SDS011;4438;50.890;4.726;2023-09-19T01:10:36;8.73;;;3.17;;
8803;SDS011;4438;50.890;4.726;2023-09-19T01:16:02;7.13;;;2.97;;
8803;SDS011;4438;50.890;4.726;2023-09-19T01:18:43;6.53;;;3.23;;
8803;SDS011;4438;50.890;4.726;2023-09-19T01:21:15;6.20;;;2.50;;
8803;SDS011;4438;50.890;4.726;2023-09-19T01:29:00;8.67;;;2.67;;
8803;SDS011;4438;50.890;4.726;2023-09-19T01:31:28;8.93;;;2.80;;
8803;SDS011;4438;50.890;4.726;2023-09-19T01:34:01;6.90;;;2.70;;
8803;SDS011;4438;50.890;4.726;2023-09-19T01:36:33;8.67;;;2.90;;
8803;SDS011;4438;50.890;4.726;2023-09-19T01:39:12;8.27;;;2.90;;
8803;SDS011;4438;50.890;4.726;2023-09-19T01:41:51;6.60;;;2.80;;
8803;SDS011;4438;50.890;4.726;2023-09-19T01:47:03;6.87;;;2.77;;
8803;SDS011;4438;50.890;4.726;2023-09-19T01:52:13;9.90;;;3.10;;
8803;SDS011;4438;50.890;4.726;2023-09-19T01:54:46;5.77;;;2.70;;
8803;SDS011;4438;50.890;4.726;2023-09-19T01:57:17;6.80;;;2.80;;
8803;SDS011;4438;50.890;4.726;2023-09-19T01:59:54;8.73;;;2.93;;
8803;SDS011;4438;50.890;4.726;2023-09-19T02:02:22;8.07;;;3.20;;
8803;SDS011;4438;50.890;4.726;2023-09-19T02:04:49;7.83;;;2.80;;
8803;SDS011;4438;50.890;4.726;2023-09-19T02:07:16;10.17;;;2.87;;
8803;SDS011;4438;50.890;4.726;2023-09-19T02:09:42;5.67;;;2.50;;
8803;SDS011;4438;50.890;4.726;2023-09-19T02:12:11;7.93;;;2.97;;
8803;SDS011;4438;50.890;4.726;2023-09-19T02:14:38;7.13;;;3.07;;
8803;SDS011;4438;50.890;4.726;2023-09-19T02:17:04;8.30;;;2.43;;
8803;SDS011;4438;50.890;4.726;2023-09-19T02:19:32;6.80;;;2.80;;
8803;SDS011;4438;50.890;4.726;2023-09-19T02:21:59;9.63;;;2.83;;
8803;SDS011;4438;50.890;4.726;2023-09-19T02:24:28;7.63;;;2.80;;
8803;SDS011;4438;50.890;4.726;2023-09-19T02:26:54;9.93;;;3.10;;
8803;SDS011;4438;50.890;4.726;2023-09-19T02:29:20;6.73;;;3.10;;
8803;SDS011;4438;50.890;4.726;2023-09-19T02:31:47;8.03;;;3.30;;
8803;SDS011;4438;50.890;4.726;2023-09-19T02:34:13;7.37;;;2.63;;
8803;SDS011;4438;50.890;4.726;2023-09-19T02:36:41;8.23;;;3.00;;
8803;SDS011;4438;50.890;4.726;2023-09-19T02:39:09;10.33;;;3.20;;
8803;SDS011;4438;50.890;4.726;2023-09-19T02:41:36;8.23;;;3.23;;
8803;SDS011;4438;50.890;4.726;2023-09-19T02:44:02;7.77;;;3.10;;
8803;SDS011;4438;50.890;4.726;2023-09-19T02:46:32;7.13;;;2.77;;
8803;SDS011;4438;50.890;4.726;2023-09-19T02:48:58;7.97;;;2.87;;
8803;SDS011;4438;50.890;4.726;2023-09-19T02:51:24;8.50;;;3.00;;
8803;SDS011;4438;50.890;4.726;2023-09-19T02:53:50;8.10;;;3.00;;
8803;SDS011;4438;50.890;4.726;2023-09-19T02:56:19;6.83;;;3.27;;
8803;SDS011;4438;50.890;4.726;2023-09-19T02:58:46;11.23;;;3.17;;
8803;SDS011;4438;50.890;4.726;2023-09-19T03:01:13;7.47;;;3.00;;
8803;SDS011;4438;50.890;4.726;2023-09-19T03:03:39;7.60;;;3.43;;
8803;SDS011;4438;50.890;4.726;2023-09-19T03:06:06;9.33;;;2.90;;
8803;SDS011;4438;50.890;4.726;2023-09-19T03:08:34;11.03;;;2.83;;
8803;SDS011;4438;50.890;4.726;2023-09-19T03:11:07;8.43;;;3.27;;
8803;SDS011;4438;50.890;4.726;2023-09-19T03:13:36;9.30;;;2.93;;
8803;SDS011;4438;50.890;4.726;2023-09-19T03:16:03;8.87;;;3.17;;
8803;SDS011;4438;50.890;4.726;2023-09-19T03:18:36;8.97;;;3.37;;
8803;SDS011;4438;50.890;4.726;2023-09-19T03:21:02;9.93;;;3.30;;
8803;SDS011;4438;50.890;4.726;2023-09-19T03:23:29;8.60;;;2.73;;
8803;SDS011;4438;50.890;4.726;2023-09-19T03:25:55;11.37;;;3.53;;
8803;SDS011;4438;50.890;4.726;2023-09-19T03:28:22;11.67;;;3.17;;
8803;SDS011;4438;50.890;4.726;2023-09-19T03:31:02;8.77;;;3.27;;
8803;SDS011;4438;50.890;4.726;2023-09-19T03:33:28;8.47;;;3.20;;
8803;SDS011;4438;50.890;4.726;2023-09-19T03:35:56;6.40;;;3.03;;
8803;SDS011;4438;50.890;4.726;2023-09-19T03:38:24;8.77;;;3.27;;
8803;SDS011;4438;50.890;4.726;2023-09-19T03:40:50;8.90;;;3.47;;
8803;SDS011;4438;50.890;4.726;2023-09-19T03:43:17;8.50;;;3.30;;
8803;SDS011;4438;50.890;4.726;2023-09-19T03:45:43;6.00;;;2.90;;
8803;SDS011;4438;50.890;4.726;2023-09-19T03:48:10;7.20;;;3.10;;
8803;SDS011;4438;50.890;4.726;2023-09-19T03:50:36;8.43;;;3.03;;
8803;SDS011;4438;50.890;4.726;2023-09-19T03:53:02;7.57;;;3.40;;
8803;SDS011;4438;50.890;4.726;2023-09-19T03:55:28;8.83;;;3.40;;
8803;SDS011;4438;50.890;4.726;2023-09-19T03:57:57;8.77;;;2.77;;
8803;SDS011;4438;50.890;4.726;2023-09-19T04:00:23;8.23;;;3.30;;
8803;SDS011;4438;50.890;4.726;2023-09-19T04:02:51;8.80;;;3.13;;
8803;SDS011;4438;50.890;4.726;2023-09-19T04:05:18;7.87;;;2.93;;
8803;SDS011;4438;50.890;4.726;2023-09-19T04:07:44;7.67;;;3.10;;
8803;SDS011;4438;50.890;4.726;2023-09-19T04:10:10;5.07;;;2.87;;
8803;SDS011;4438;50.890;4.726;2023-09-19T04:12:37;9.30;;;3.10;;
8803;SDS011;4438;50.890;4.726;2023-09-19T04:15:06;5.87;;;2.90;;
8803;SDS011;4438;50.890;4.726;2023-09-19T04:17:33;7.20;;;3.17;;
8803;SDS011;4438;50.890;4.726;2023-09-19T04:19:59;7.37;;;3.27;;
8803;SDS011;4438;50.890;4.726;2023-09-19T04:22:26;10.03;;;3.43;;
8803;SDS011;4438;50.890;4.726;2023-09-19T04:24:52;8.53;;;3.17;;
8803;SDS011;4438;50.890;4.726;2023-09-19T04:27:18;7.67;;;3.27;;
8803;SDS011;4438;50.890;4.726;2023-09-19T04:29:44;8.33;;;3.20;;
8803;SDS011;4438;50.890;4.726;2023-09-19T04:32:10;9.40;;;3.30;;
8803;SDS011;4438;50.890;4.726;2023-09-19T04:34:38;8.73;;;3.47;;
8803;SDS011;4438;50.890;4.726;2023-09-19T04:37:04;9.10;;;3.33;;
8803;SDS011;4438;50.890;4.726;2023-09-19T04:39:30;9.47;;;3.47;;
8803;SDS011;4438;50.890;4.726;2023-09-19T04:41:56;8.20;;;3.17;;
8803;SDS011;4438;50.890;4.726;2023-09-19T04:44:23;7.87;;;3.20;;
8803;SDS011;4438;50.890;4.726;2023-09-19T04:46:49;10.33;;;3.27;;
8803;SDS011;4438;50.890;4.726;2023-09-19T04:49:16;7.47;;;3.07;;
8803;SDS011;4438;50.890;4.726;2023-09-19T04:51:43;8.23;;;3.10;;
8803;SDS011;4438;50.890;4.726;2023-09-19T04:54:11;7.27;;;2.63;;
8803;SDS011;4438;50.890;4.726;2023-09-19T04:56:38;7.77;;;3.37;;
8803;SDS011;4438;50.890;4.726;2023-09-19T04:59:05;7.97;;;3.10;;
8803;SDS011;4438;50.890;4.726;2023-09-19T05:01:31;6.50;;;2.83;;
8803;SDS011;4438;50.890;4.726;2023-09-19T05:03:58;9.60;;;3.30;;
8803;SDS011;4438;50.890;4.726;2023-09-19T05:06:24;8.47;;;3.43;;
8803;SDS011;4438;50.890;4.726;2023-09-19T05:08:51;8.67;;;3.03;;
8803;SDS011;4438;50.890;4.726;2023-09-19T05:11:21;9.53;;;3.23;;
8803;SDS011;4438;50.890;4.726;2023-09-19T05:13:48;6.70;;;3.47;;
8803;SDS011;4438;50.890;4.726;2023-09-19T05:16:15;9.03;;;2.90;;
8803;SDS011;4438;50.890;4.726;2023-09-19T05:18:41;6.47;;;3.33;;
8803;SDS011;4438;50.890;4.726;2023-09-19T05:21:08;6.37;;;3.07;;
8803;SDS011;4438;50.890;4.726;2023-09-19T05:23:34;8.43;;;3.10;;
8803;SDS011;4438;50.890;4.726;2023-09-19T05:26:00;7.53;;;3.20;;
8803;SDS011;4438;50.890;4.726;2023-09-19T05:28:27;7.67;;;2.90;;
8803;SDS011;4438;50.890;4.726;2023-09-19T05:30:53;9.90;;;3.00;;
8803;SDS011;4438;50.890;4.726;2023-09-19T05:33:19;8.40;;;2.80;;
8803;SDS011;4438;50.890;4.726;2023-09-19T05:35:47;8.23;;;3.00;;
8803;SDS011;4438;50.890;4.726;2023-09-19T05:38:13;6.90;;;2.93;;
8803;SDS011;4438;50.890;4.726;2023-09-19T05:40:40;6.40;;;2.90;;
8803;SDS011;4438;50.890;4.726;2023-09-19T05:43:08;6.97;;;3.00;;
8803;SDS011;4438;50.890;4.726;2023-09-19T05:45:34;6.37;;;2.73;;
8803;SDS011;4438;50.890;4.726;2023-09-19T05:48:08;8.70;;;2.80;;
8803;SDS011;4438;50.890;4.726;2023-09-19T05:50:34;9.20;;;3.13;;
8803;SDS011;4438;50.890;4.726;2023-09-19T05:53:01;7.40;;;3.10;;
8803;SDS011;4438;50.890;4.726;2023-09-19T05:55:29;7.70;;;3.37;;
8803;SDS011;4438;50.890;4.726;2023-09-19T05:57:55;6.80;;;2.70;;
8803;SDS011;4438;50.890;4.726;2023-09-19T06:00:22;10.00;;;3.20;;
8803;SDS011;4438;50.890;4.726;2023-09-19T06:05:17;7.60;;;3.20;;
8803;SDS011;4438;50.890;4.726;2023-09-19T06:07:44;4.40;;;2.80;;
8803;SDS011;4438;50.890;4.726;2023-09-19T06:10:11;7.40;;;3.23;;
8803;SDS011;4438;50.890;4.726;2023-09-19T06:12:41;7.00;;;3.10;;
8803;SDS011;4438;50.890;4.726;2023-09-19T06:15:11;7.20;;;2.90;;
8803;SDS011;4438;50.890;4.726;2023-09-19T06:17:46;9.63;;;2.90;;
8803;SDS011;4438;50.890;4.726;2023-09-19T06:20:12;8.63;;;2.63;;
8803;SDS011;4438;50.890;4.726;2023-09-19T06:22:39;10.23;;;3.00;;
8803;SDS011;4438;50.890;4.726;2023-09-19T06:25:06;8.73;;;3.10;;
8803;SDS011;4438;50.890;4.726;2023-09-19T06:27:33;6.67;;;2.90;;
8803;SDS011;4438;50.890;4.726;2023-09-19T06:30:01;7.63;;;3.20;;
8803;SDS011;4438;50.890;4.726;2023-09-19T06:32:28;8.37;;;3.07;;
8803;SDS011;4438;50.890;4.726;2023-09-19T06:34:54;6.93;;;2.97;;
8803;SDS011;4438;50.890;4.726;2023-09-19T06:37:21;7.00;;;2.97;;
8803;SDS011;4438;50.890;4.726;2023-09-19T06:39:47;8.60;;;3.23;;
8803;SDS011;4438;50.890;4.726;2023-09-19T06:42:14;13.07;;;3.40;;
8803;SDS011;4438;50.890;4.726;2023-09-19T06:44:42;7.70;;;2.90;;
8803;SDS011;4438;50.890;4.726;2023-09-19T06:47:08;7.73;;;3.20;;
8803;SDS011;4438;50.890;4.726;2023-09-19T06:49:35;6.97;;;3.07;;
8803;SDS011;4438;50.890;4.726;2023-09-19T06:52:02;6.53;;;2.90;;
8803;SDS011;4438;50.890;4.726;2023-09-19T06:54:28;8.13;;;3.20;;
8803;SDS011;4438;50.890;4.726;2023-09-19T06:56:59;8.00;;;2.90;;
8803;SDS011;4438;50.890;4.726;2023-09-19T06:59:25;6.07;;;2.60;;
8803;SDS011;4438;50.890;4.726;2023-09-19T07:01:51;7.97;;;3.37;;
8803;SDS011;4438;50.890;4.726;2023-09-19T07:04:17;6.97;;;2.87;;
8803;SDS011;4438;50.890;4.726;2023-09-19T07:06:48;8.60;;;2.97;;
8803;SDS011;4438;50.890;4.726;2023-09-19T07:09:15;7.73;;;2.80;;
8803;SDS011;4438;50.890;4.726;2023-09-19T07:11:41;10.07;;;2.93;;
8803;SDS011;4438;50.890;4.726;2023-09-19T07:14:08;8.20;;;3.10;;
8803;SDS011;4438;50.890;4.726;2023-09-19T07:16:37;11.73;;;3.27;;
8803;SDS011;4438;50.890;4.726;2023-09-19T07:19:04;9.13;;;3.20;;
8803;SDS011;4438;50.890;4.726;2023-09-19T07:21:30;11.07;;;3.10;;
8803;SDS011;4438;50.890;4.726;2023-09-19T07:23:59;7.07;;;2.63;;
8803;SDS011;4438;50.890;4.726;2023-09-19T07:26:26;8.87;;;3.30;;
8803;SDS011;4438;50.890;4.726;2023-09-19T07:28:53;7.07;;;2.63;;
8803;SDS011;4438;50.890;4.726;2023-09-19T07:31:19;6.27;;;2.63;;
8803;SDS011;4438;50.890;4.726;2023-09-19T07:33:45;10.50;;;3.27;;
8803;SDS011;4438;50.890;4.726;2023-09-19T07:36:11;8.83;;;3.03;;
8803;SDS011;4438;50.890;4.726;2023-09-19T07:38:41;10.60;;;3.20;;
8803;SDS011;4438;50.890;4.726;2023-09-19T07:41:08;9.47;;;3.27;;
8803;SDS011;4438;50.890;4.726;2023-09-19T07:43:37;6.87;;;2.87;;
8803;SDS011;4438;50.890;4.726;2023-09-19T07:46:12;10.30;;;3.30;;
8803;SDS011;4438;50.890;4.726;2023-09-19T07:48:38;7.87;;;2.80;;
8803;SDS011;4438;50.890;4.726;2023-09-19T07:51:06;5.00;;;3.07;;
8803;SDS011;4438;50.890;4.726;2023-09-19T07:53:33;7.63;;;3.13;;
8803;SDS011;4438;50.890;4.726;2023-09-19T07:56:07;6.90;;;3.00;;
8803;SDS011;4438;50.890;4.726;2023-09-19T07:58:33;8.50;;;3.03;;
8803;SDS011;4438;50.890;4.726;2023-09-19T08:01:04;8.70;;;3.13;;
8803;SDS011;4438;50.890;4.726;2023-09-19T08:03:30;8.20;;;3.10;;
8803;SDS011;4438;50.890;4.726;2023-09-19T08:05:57;8.13;;;2.97;;
8803;SDS011;4438;50.890;4.726;2023-09-19T08:08:23;6.67;;;3.20;;
8803;SDS011;4438;50.890;4.726;2023-09-19T08:10:55;8.17;;;3.10;;
8803;SDS011;4438;50.890;4.726;2023-09-19T08:13:25;11.53;;;3.20;;
8803;SDS011;4438;50.890;4.726;2023-09-19T08:15:52;7.57;;;3.03;;
8803;SDS011;4438;50.890;4.726;2023-09-19T08:18:18;7.57;;;3.23;;
8803;SDS011;4438;50.890;4.726;2023-09-19T08:20:50;6.97;;;3.03;;
8803;SDS011;4438;50.890;4.726;2023-09-19T08:23:16;8.97;;;3.40;;
8803;SDS011;4438;50.890;4.726;2023-09-19T08:25:45;8.30;;;3.20;;
8803;SDS011;4438;50.890;4.726;2023-09-19T08:28:11;8.67;;;3.67;;
8803;SDS011;4438;50.890;4.726;2023-09-19T08:30:39;9.03;;;3.47;;
8803;SDS011;4438;50.890;4.726;2023-09-19T08:33:06;8.10;;;3.17;;
8803;SDS011;4438;50.890;4.726;2023-09-19T08:35:35;7.60;;;2.70;;
8803;SDS011;4438;50.890;4.726;2023-09-19T08:38:04;8.97;;;3.20;;
8803;SDS011;4438;50.890;4.726;2023-09-19T08:40:31;9.33;;;3.63;;
8803;SDS011;4438;50.890;4.726;2023-09-19T08:42:59;10.20;;;3.20;;
8803;SDS011;4438;50.890;4.726;2023-09-19T08:45:26;7.07;;;2.77;;
8803;SDS011;4438;50.890;4.726;2023-09-19T08:50:31;7.10;;;2.80;;
8803;SDS011;4438;50.890;4.726;2023-09-19T08:53:04;10.93;;;3.13;;
8803;SDS011;4438;50.890;4.726;2023-09-19T08:55:35;11.03;;;3.03;;
8803;SDS011;4438;50.890;4.726;2023-09-19T08:58:05;6.27;;;2.80;;
8803;SDS011;4438;50.890;4.726;2023-09-19T09:00:35;8.93;;;3.00;;
8803;SDS011;4438;50.890;4.726;2023-09-19T09:03:02;10.40;;;3.27;;
8803;SDS011;4438;50.890;4.726;2023-09-19T09:05:31;8.77;;;3.07;;
8803;SDS011;4438;50.890;4.726;2023-09-19T09:07:58;8.53;;;3.07;;
8803;SDS011;4438;50.890;4.726;2023-09-19T09:10:24;7.67;;;2.67;;
8803;SDS011;4438;50.890;4.726;2023-09-19T09:12:54;7.20;;;2.70;;
8803;SDS011;4438;50.890;4.726;2023-09-19T09:15:21;11.30;;;3.13;;
8803;SDS011;4438;50.890;4.726;2023-09-19T09:17:51;7.87;;;2.77;;
8803;SDS011;4438;50.890;4.726;2023-09-19T09:20:20;5.57;;;2.73;;
8803;SDS011;4438;50.890;4.726;2023-09-19T09:22:56;8.20;;;2.67;;
8803;SDS011;4438;50.890;4.726;2023-09-19T09:28:34;7.07;;;2.63;;
8803;SDS011;4438;50.890;4.726;2023-09-19T09:31:04;8.73;;;2.97;;
8803;SDS011;4438;50.890;4.726;2023-09-19T09:33:34;7.47;;;2.93;;
8803;SDS011;4438;50.890;4.726;2023-09-19T09:36:01;8.83;;;3.10;;
8803;SDS011;4438;50.890;4.726;2023-09-19T09:38:28;7.87;;;3.03;;
8803;SDS011;4438;50.890;4.726;2023-09-19T09:40:58;9.00;;;2.90;;
8803;SDS011;4438;50.890;4.726;2023-09-19T09:43:29;5.67;;;2.37;;
8803;SDS011;4438;50.890;4.726;2023-09-19T09:46:08;5.73;;;2.60;;
8803;SDS011;4438;50.890;4.726;2023-09-19T09:49:04;5.57;;;2.73;;
8803;SDS011;4438;50.890;4.726;2023-09-19T09:52:13;6.83;;;2.90;;
8803;SDS011;4438;50.890;4.726;2023-09-19T09:54:58;8.47;;;2.73;;
8803;SDS011;4438;50.890;4.726;2023-09-19T09:57:25;7.33;;;2.80;;
8803;SDS011;4438;50.890;4.726;2023-09-19T09:59:55;5.60;;;2.27;;
8803;SDS011;4438;50.890;4.726;2023-09-19T10:02:41;5.80;;;2.70;;
8803;SDS011;4438;50.890;4.726;2023-09-19T10:05:19;5.03;;;2.63;;
8803;SDS011;4438;50.890;4.726;2023-09-19T10:07:47;7.77;;;2.60;;
8803;SDS011;4438;50.890;4.726;2023-09-19T10:10:34;5.60;;;2.30;;
8803;SDS011;4438;50.890;4.726;2023-09-19T10:13:19;6.60;;;2.43;;
8803;SDS011;4438;50.890;4.726;2023-09-19T10:15:50;6.57;;;2.60;;
8803;SDS011;4438;50.890;4.726;2023-09-19T10:20:46;5.63;;;2.40;;
8803;SDS011;4438;50.890;4.726;2023-09-19T10:23:13;5.90;;;2.50;;
8803;SDS011;4438;50.890;4.726;2023-09-19T10:25:41;5.17;;;2.10;;
8803;SDS011;4438;50.890;4.726;2023-09-19T10:28:08;6.20;;;2.20;;
8803;SDS011;4438;50.890;4.726;2023-09-19T10:30:39;5.57;;;2.17;;
8803;SDS011;4438;50.890;4.726;2023-09-19T10:33:09;6.53;;;2.37;;
8803;SDS011;4438;50.890;4.726;2023-09-19T10:35:37;5.73;;;2.63;;
8803;SDS011;4438;50.890;4.726;2023-09-19T10:38:06;7.73;;;2.10;;
8803;SDS011;4438;50.890;4.726;2023-09-19T10:40:34;5.97;;;2.10;;
8803;SDS011;4438;50.890;4.726;2023-09-19T10:43:02;5.00;;;2.10;;
8803;SDS011;4438;50.890;4.726;2023-09-19T10:45:32;4.70;;;2.20;;
8803;SDS011;4438;50.890;4.726;2023-09-19T10:48:02;6.63;;;2.33;;
8803;SDS011;4438;50.890;4.726;2023-09-19T10:50:29;5.13;;;1.93;;
8803;SDS011;4438;50.890;4.726;2023-09-19T10:52:58;3.27;;;1.60;;
8803;SDS011;4438;50.890;4.726;2023-09-19T10:55:29;4.17;;;1.83;;
8803;SDS011;4438;50.890;4.726;2023-09-19T10:57:59;7.43;;;2.17;;
8803;SDS011;4438;50.890;4.726;2023-09-19T11:00:53;4.97;;;1.90;;
8803;SDS011;4438;50.890;4.726;2023-09-19T11:03:20;7.87;;;2.10;;
8803;SDS011;4438;50.890;4.726;2023-09-19T11:30:46;4.73;;;1.90;;
8803;SDS011;4438;50.890;4.726;2023-09-19T11:33:17;3.00;;;1.50;;
8803;SDS011;4438;50.890;4.726;2023-09-19T11:46:51;2.30;;;1.73;;
8803;SDS011;4438;50.890;4.726;2023-09-19T11:49:17;3.70;;;1.67;;
8803;SDS011;4438;50.890;4.726;2023-09-19T11:51:46;2.87;;;1.47;;
8803;SDS011;4438;50.890;4.726;2023-09-19T11:54:15;3.13;;;1.50;;
8803;SDS011;4438;50.890;4.726;2023-09-19T11:56:48;4.17;;;1.63;;
8803;SDS011;4438;50.890;4.726;2023-09-19T11:59:22;3.70;;;1.60;;
8803;SDS011;4438;50.890;4.726;2023-09-19T12:01:53;2.33;;;1.57;;
8803;SDS011;4438;50.890;4.726;2023-09-19T12:04:34;3.13;;;1.70;;
8803;SDS011;4438;50.890;4.726;2023-09-19T12:07:08;5.10;;;1.90;;
8803;SDS011;4438;50.890;4.726;2023-09-19T12:09:50;4.13;;;1.70;;
8803;SDS011;4438;50.890;4.726;2023-09-19T12:12:20;3.33;;;1.57;;
8803;SDS011;4438;50.890;4.726;2023-09-19T12:14:49;2.33;;;1.47;;
8803;SDS011;4438;50.890;4.726;2023-09-19T12:17:16;2.57;;;1.50;;
8803;SDS011;4438;50.890;4.726;2023-09-19T12:19:52;3.57;;;1.63;;
8803;SDS011;4438;50.890;4.726;2023-09-19T12:22:21;5.20;;;1.93;;
8803;SDS011;4438;50.890;4.726;2023-09-19T12:24:47;4.30;;;1.70;;
8803;SDS011;4438;50.890;4.726;2023-09-19T12:27:13;3.47;;;1.40;;
8803;SDS011;4438;50.890;4.726;2023-09-19T12:29:43;2.40;;;1.30;;
8803;SDS011;4438;50.890;4.726;2023-09-19T12:32:12;3.03;;;1.50;;
8803;SDS011;4438;50.890;4.726;2023-09-19T12:34:42;3.50;;;1.60;;
8803;SDS011;4438;50.890;4.726;2023-09-19T12:37:11;3.70;;;1.90;;
8803;SDS011;4438;50.890;4.726;2023-09-19T12:39:45;4.00;;;1.70;;
8803;SDS011;4438;50.890;4.726;2023-09-19T12:42:14;2.63;;;1.33;;
8803;SDS011;4438;50.890;4.726;2023-09-19T12:44:44;2.60;;;1.57;;
8803;SDS011;4438;50.890;4.726;2023-09-19T12:47:11;4.20;;;1.60;;
8803;SDS011;4438;50.890;4.726;2023-09-19T12:52:47;5.30;;;1.57;;
8803;SDS011;4438;50.890;4.726;2023-09-19T12:55:20;4.70;;;1.70;;
8803;SDS011;4438;50.890;4.726;2023-09-19T12:58:01;5.77;;;1.60;;
8803;SDS011;4438;50.890;4.726;2023-09-19T13:00:40;2.57;;;1.53;;
8803;SDS011;4438;50.890;4.726;2023-09-19T13:03:14;5.00;;;1.50;;
8803;SDS011;4438;50.890;4.726;2023-09-19T13:06:01;2.80;;;1.60;;
8803;SDS011;4438;50.890;4.726;2023-09-19T13:08:32;3.00;;;1.70;;
8803;SDS011;4438;50.890;4.726;2023-09-19T13:10:59;2.87;;;1.47;;
8803;SDS011;4438;50.890;4.726;2023-09-19T13:13:25;5.60;;;1.53;;
8803;SDS011;4438;50.890;4.726;2023-09-19T13:15:52;3.13;;;1.60;;
8803;SDS011;4438;50.890;4.726;2023-09-19T13:18:19;4.10;;;1.70;;
8803;SDS011;4438;50.890;4.726;2023-09-19T13:21:05;2.93;;;1.80;;
8803;SDS011;4438;50.890;4.726;2023-09-19T13:23:35;4.77;;;1.80;;
8803;SDS011;4438;50.890;4.726;2023-09-19T13:26:02;4.67;;;2.00;;
8803;SDS011;4438;50.890;4.726;2023-09-19T13:28:30;3.40;;;1.67;;
8803;SDS011;4438;50.890;4.726;2023-09-19T13:30:56;4.20;;;1.70;;
8803;SDS011;4438;50.890;4.726;2023-09-19T13:33:23;5.60;;;1.70;;
8803;SDS011;4438;50.890;4.726;2023-09-19T13:35:49;4.83;;;1.80;;
8803;SDS011;4438;50.890;4.726;2023-09-19T13:38:15;4.83;;;1.60;;
8803;SDS011;4438;50.890;4.726;2023-09-19T13:40:41;3.17;;;1.70;;
8803;SDS011;4438;50.890;4.726;2023-09-19T13:43:08;3.57;;;1.70;;
8803;SDS011;4438;50.890;4.726;2023-09-19T13:45:34;4.47;;;1.77;;
8803;SDS011;4438;50.890;4.726;2023-09-19T13:48:01;3.40;;;1.63;;
8803;SDS011;4438;50.890;4.726;2023-09-19T13:50:27;4.43;;;1.60;;
8803;SDS011;4438;50.890;4.726;2023-09-19T13:52:54;3.20;;;1.30;;
8803;SDS011;4438;50.890;4.726;2023-09-19T13:55:21;2.87;;;1.47;;
8803;SDS011;4438;50.890;4.726;2023-09-19T13:57:50;2.97;;;1.70;;
8803;SDS011;4438;50.890;4.726;2023-09-19T14:00:19;2.17;;;1.53;;
8803;SDS011;4438;50.890;4.726;2023-09-19T14:02:45;3.83;;;1.50;;
8803;SDS011;4438;50.890;4.726;2023-09-19T14:05:14;2.63;;;1.43;;
8803;SDS011;4438;50.890;4.726;2023-09-19T14:07:42;3.07;;;1.77;;
8803;SDS011;4438;50.890;4.726;2023-09-19T14:10:08;5.20;;;1.83;;
8803;SDS011;4438;50.890;4.726;2023-09-19T14:12:36;2.73;;;1.40;;
8803;SDS011;4438;50.890;4.726;2023-09-19T14:15:02;1.90;;;1.50;;
8803;SDS011;4438;50.890;4.726;2023-09-19T14:17:28;2.63;;;1.63;;
8803;SDS011;4438;50.890;4.726;2023-09-19T14:19:54;2.47;;;1.70;;
8803;SDS011;4438;50.890;4.726;2023-09-19T14:22:20;3.73;;;2.00;;
8803;SDS011;4438;50.890;4.726;2023-09-19T14:24:47;2.90;;;1.60;;
8803;SDS011;4438;50.890;4.726;2023-09-19T14:27:13;3.87;;;1.93;;
8803;SDS011;4438;50.890;4.726;2023-09-19T14:29:39;4.07;;;1.80;;
8803;SDS011;4438;50.890;4.726;2023-09-19T14:32:06;3.13;;;1.53;;
8803;SDS011;4438;50.890;4.726;2023-09-19T14:34:32;4.27;;;1.80;;
8803;SDS011;4438;50.890;4.726;2023-09-19T14:36:59;2.87;;;1.60;;
8803;SDS011;4438;50.890;4.726;2023-09-19T14:39:25;2.87;;;1.60;;
8803;SDS011;4438;50.890;4.726;2023-09-19T14:41:52;3.23;;;1.60;;
8803;SDS011;4438;50.890;4.726;2023-09-19T14:44:18;4.80;;;1.50;;
8803;SDS011;4438;50.890;4.726;2023-09-19T14:46:44;3.53;;;1.80;;
8803;SDS011;4438;50.890;4.726;2023-09-19T14:49:11;3.43;;;1.77;;
8803;SDS011;4438;50.890;4.726;2023-09-19T14:51:37;3.67;;;1.80;;
8803;SDS011;4438;50.890;4.726;2023-09-19T14:54:09;4.17;;;2.10;;
8803;SDS011;4438;50.890;4.726;2023-09-19T14:56:35;4.20;;;2.10;;
8803;SDS011;4438;50.890;4.726;2023-09-19T14:59:01;3.53;;;1.97;;
8803;SDS011;4438;50.890;4.726;2023-09-19T15:01:27;3.33;;;2.00;;
8803;SDS011;4438;50.890;4.726;2023-09-19T15:03:54;2.73;;;1.73;;
8803;SDS011;4438;50.890;4.726;2023-09-19T15:06:21;2.30;;;1.50;;
8803;SDS011;4438;50.890;4.726;2023-09-19T15:08:47;3.47;;;2.00;;
8803;SDS011;4438;50.890;4.726;2023-09-19T15:11:18;3.77;;;1.93;;
8803;SDS011;4438;50.890;4.726;2023-09-19T15:13:47;3.40;;;1.73;;
8803;SDS011;4438;50.890;4.726;2023-09-19T15:16:13;3.53;;;1.70;;
8803;SDS011;4438;50.890;4.726;2023-09-19T15:18:40;4.13;;;2.30;;
8803;SDS011;4438;50.890;4.726;2023-09-19T15:21:08;4.27;;;2.10;;
8803;SDS011;4438;50.890;4.726;2023-09-19T15:23:35;5.23;;;1.90;;
8803;SDS011;4438;50.890;4.726;2023-09-19T15:26:05;5.10;;;2.17;;
8803;SDS011;4438;50.890;4.726;2023-09-19T15:28:32;3.63;;;2.00;;
8803;SDS011;4438;50.890;4.726;2023-09-19T15:31:06;4.20;;;1.97;;
8803;SDS011;4438;50.890;4.726;2023-09-19T15:33:33;6.07;;;2.10;;
8803;SDS011;4438;50.890;4.726;2023-09-19T15:38:32;4.10;;;2.20;;
8803;SDS011;4438;50.890;4.726;2023-09-19T15:40:58;6.63;;;2.20;;
8803;SDS011;4438;50.890;4.726;2023-09-19T15:43:24;3.83;;;2.07;;
8803;SDS011;4438;50.890;4.726;2023-09-19T15:45:50;3.73;;;2.13;;
8803;SDS011;4438;50.890;4.726;2023-09-19T15:48:17;3.57;;;2.17;;
8803;SDS011;4438;50.890;4.726;2023-09-19T15:50:46;4.67;;;2.40;;
8803;SDS011;4438;50.890;4.726;2023-09-19T15:53:13;5.20;;;1.97;;
8803;SDS011;4438;50.890;4.726;2023-09-19T15:55:39;4.87;;;2.10;;
8803;SDS011;4438;50.890;4.726;2023-09-19T15:58:05;2.97;;;2.07;;
8803;SDS011;4438;50.890;4.726;2023-09-19T16:00:32;3.30;;;1.70;;
8803;SDS011;4438;50.890;4.726;2023-09-19T16:03:01;4.13;;;2.00;;
8803;SDS011;4438;50.890;4.726;2023-09-19T16:05:28;3.87;;;1.93;;
8803;SDS011;4438;50.890;4.726;2023-09-19T16:07:54;3.77;;;2.33;;
8803;SDS011;4438;50.890;4.726;2023-09-19T16:10:20;3.33;;;2.10;;
8803;SDS011;4438;50.890;4.726;2023-09-19T16:12:48;4.37;;;2.17;;
8803;SDS011;4438;50.890;4.726;2023-09-19T16:15:14;3.77;;;1.80;;
8803;SDS011;4438;50.890;4.726;2023-09-19T16:17:40;4.50;;;1.93;;
8803;SDS011;4438;50.890;4.726;2023-09-19T16:20:06;4.27;;;2.07;;
8803;SDS011;4438;50.890;4.726;2023-09-19T16:22:37;4.23;;;2.00;;
8803;SDS011;4438;50.890;4.726;2023-09-19T16:25:03;3.33;;;2.00;;
8803;SDS011;4438;50.890;4.726;2023-09-19T16:27:29;5.53;;;2.00;;
8803;SDS011;4438;50.890;4.726;2023-09-19T16:29:55;3.50;;;1.90;;